Time;durP1;ratioP1;P1;durP2;ratioP2;P2;SDS_P1;SDS_P2;PMS_P1;PMS_P2;Temp;Humidity;BMP_temperature;BMP_pressure;BME280_temperature;BME280_humidity;BME280_pressure;Samples;Min_cycle;Max_cycle;Signal;HPM_P1;HPM_P2
2021/10/14 00:01:35;;;;;;;8.38;5.60;;;12.50;99.90;;;;;;5086840;28;20043;-81
2021/10/14 00:04:01;;;;;;;13.68;7.40;;;12.50;99.90;;;;;;5091662;28;20064;-82
2021/10/14 00:06:27;;;;;;;11.25;6.70;;;12.50;99.90;;;;;;5106553;28;20047;-81
2021/10/14 00:08:53;;;;;;;10.20;4.10;;;12.50;99.90;;;;;;5094075;28;20043;-80
2021/10/14 00:11:18;;;;;;;6.45;3.70;;;12.50;99.90;;;;;;5092502;28;20039;-80
2021/10/14 00:13:44;;;;;;;2.08;1.88;;;12.50;99.90;;;;;;5099079;28;20050;-80
2021/10/14 00:16:11;;;;;;;5.30;2.28;;;12.50;99.90;;;;;;5102639;28;20040;-79
2021/10/14 00:18:37;;;;;;;6.25;2.25;;;12.50;99.90;;;;;;5115826;27;20039;-79
2021/10/14 00:21:03;;;;;;;5.55;2.13;;;12.50;99.90;;;;;;5084790;28;20043;-80
2021/10/14 00:23:28;;;;;;;5.68;2.42;;;12.60;99.90;;;;;;5106796;28;20027;-80
2021/10/14 00:25:54;;;;;;;6.22;2.58;;;12.60;99.90;;;;;;5090955;28;20044;-80
2021/10/14 00:28:20;;;;;;;6.00;2.72;;;12.60;99.90;;;;;;5089622;28;20356;-80
2021/10/14 00:30:46;;;;;;;9.52;2.90;;;12.60;99.90;;;;;;5090743;28;20086;-81
2021/10/14 00:33:11;;;;;;;9.93;2.85;;;12.60;99.90;;;;;;5106694;28;20071;-82
2021/10/14 00:35:37;;;;;;;11.25;3.35;;;12.60;99.90;;;;;;5083588;28;20040;-81
2021/10/14 00:38:03;;;;;;;10.48;3.72;;;12.60;99.90;;;;;;5100494;28;20040;-81
2021/10/14 00:40:30;;;;;;;6.88;3.40;;;12.60;99.90;;;;;;5106873;28;20046;-81
2021/10/14 00:42:56;;;;;;;15.38;3.80;;;12.60;99.90;;;;;;5090795;28;20039;-80
2021/10/14 00:45:21;;;;;;;15.27;4.68;;;12.60;99.90;;;;;;5105945;28;20046;-80
2021/10/14 00:47:47;;;;;;;15.50;3.75;;;12.60;99.90;;;;;;5090805;28;20419;-79
2021/10/14 00:50:13;;;;;;;14.02;3.17;;;12.60;99.90;;;;;;5089347;28;20047;-80
2021/10/14 00:52:41;;;;;;;12.88;3.72;;;12.50;99.90;;;;;;5083887;28;20127;-80
2021/10/14 00:55:08;;;;;;;9.85;3.20;;;12.50;99.90;;;;;;5083336;28;20043;-81
2021/10/14 00:57:34;;;;;;;14.93;3.80;;;12.50;99.90;;;;;;5089924;28;20161;-80
2021/10/14 01:00:00;;;;;;;9.80;3.17;;;12.50;99.90;;;;;;5107223;28;20552;-80
2021/10/14 01:02:26;;;;;;;9.25;2.97;;;12.50;99.90;;;;;;5106252;28;20474;-80
2021/10/14 01:04:54;;;;;;;7.65;3.25;;;12.50;99.90;;;;;;5090546;28;20044;-80
2021/10/14 01:07:22;;;;;;;9.43;2.45;;;12.40;99.90;;;;;;5089580;28;20056;-80
2021/10/14 01:09:48;;;;;;;10.82;2.60;;;12.40;99.90;;;;;;5083472;28;20051;-80
2021/10/14 01:12:14;;;;;;;9.70;2.33;;;12.30;99.90;;;;;;5099128;28;20420;-80
2021/10/14 01:14:40;;;;;;;7.40;2.22;;;12.30;99.90;;;;;;5104859;28;20043;-80
2021/10/14 01:17:06;;;;;;;9.77;3.10;;;12.20;99.90;;;;;;5106160;28;20450;-80
2021/10/14 01:19:32;;;;;;;9.70;2.88;;;12.20;99.90;;;;;;5085361;28;20040;-79
2021/10/14 01:21:58;;;;;;;8.18;2.60;;;12.20;99.90;;;;;;5105809;28;20257;-80
2021/10/14 01:24:24;;;;;;;5.32;2.45;;;12.20;99.90;;;;;;5102089;28;20385;-80
2021/10/14 01:26:51;;;;;;;11.55;2.92;;;12.10;99.90;;;;;;5097934;28;20051;-80
2021/10/14 01:29:17;;;;;;;19.88;3.00;;;12.10;99.90;;;;;;5093088;28;20389;-81
2021/10/14 01:31:42;;;;;;;14.45;3.00;;;12.10;99.90;;;;;;5088441;28;20047;-81
2021/10/14 01:34:08;;;;;;;19.83;4.78;;;12.10;99.90;;;;;;5103627;28;20382;-81
2021/10/14 01:36:35;;;;;;;13.48;3.65;;;12.10;99.90;;;;;;5086074;28;20040;-81
2021/10/14 01:39:00;;;;;;;11.60;3.53;;;12.10;99.90;;;;;;5085273;28;20467;-80
2021/10/14 01:41:26;;;;;;;15.07;3.58;;;12.10;99.90;;;;;;5085449;28;20040;-81
2021/10/14 01:43:52;;;;;;;10.38;3.17;;;12.10;99.90;;;;;;5092796;28;20127;-80
2021/10/14 01:46:17;;;;;;;14.48;3.20;;;12.10;99.90;;;;;;5085791;28;20115;-80
2021/10/14 01:48:43;;;;;;;19.67;3.80;;;12.00;99.90;;;;;;5073198;28;20040;-80
2021/10/14 01:51:11;;;;;;;17.80;4.00;;;12.10;99.90;;;;;;5070545;28;20043;-80
2021/10/14 01:53:37;;;;;;;14.52;3.17;;;12.10;99.90;;;;;;5086440;28;20044;-80
2021/10/14 01:56:04;;;;;;;16.58;3.17;;;12.10;99.90;;;;;;5092583;28;20058;-80
2021/10/14 01:58:29;;;;;;;11.82;3.35;;;12.20;99.90;;;;;;5085341;28;20036;-80
2021/10/14 02:00:55;;;;;;;14.35;3.05;;;12.20;99.90;;;;;;5086776;28;20097;-80
2021/10/14 02:03:21;;;;;;;9.75;2.50;;;12.30;99.90;;;;;;5085485;28;20044;-80
2021/10/14 02:05:47;;;;;;;18.17;2.80;;;12.20;99.90;;;;;;5086162;28;20091;-80
2021/10/14 02:08:14;;;;;;;12.30;2.40;;;12.30;99.90;;;;;;5085656;28;20047;-80
2021/10/14 02:10:40;;;;;;;12.15;2.30;;;12.30;99.90;;;;;;5105283;28;20527;-80
2021/10/14 02:13:07;;;;;;;12.75;2.50;;;12.30;99.90;;;;;;5109692;28;20053;-82
2021/10/14 02:15:33;;;;;;;10.68;1.95;;;12.30;99.90;;;;;;5093095;28;20131;-80
2021/10/14 02:17:59;;;;;;;14.13;3.10;;;12.30;99.90;;;;;;5109975;28;20382;-80
2021/10/14 02:20:25;;;;;;;14.48;2.00;;;12.30;99.90;;;;;;5109578;28;20054;-80
2021/10/14 02:22:51;;;;;;;12.15;1.90;;;12.40;99.90;;;;;;5110622;27;20043;-80
2021/10/14 02:25:18;;;;;;;10.57;2.60;;;12.40;99.90;;;;;;5092068;28;20470;-80
2021/10/14 02:27:45;;;;;;;11.02;1.83;;;12.40;99.90;;;;;;5110305;28;20051;-80
2021/10/14 02:30:11;;;;;;;8.32;1.92;;;12.40;99.90;;;;;;5109260;28;20046;-80
2021/10/14 02:32:37;;;;;;;7.05;2.00;;;12.40;99.90;;;;;;5092800;28;20043;-81
2021/10/14 02:35:04;;;;;;;10.40;2.10;;;12.30;99.90;;;;;;5092895;28;20099;-80
2021/10/14 02:37:30;;;;;;;5.38;1.60;;;12.30;99.90;;;;;;5109184;28;20113;-80
2021/10/14 02:39:56;;;;;;;12.52;2.50;;;12.30;99.90;;;;;;5108750;28;20040;-79
2021/10/14 02:42:22;;;;;;;9.88;2.20;;;12.30;99.90;;;;;;5108852;28;20119;-80
2021/10/14 02:44:48;;;;;;;7.57;2.13;;;12.30;99.90;;;;;;5109455;28;20136;-80
2021/10/14 02:47:14;;;;;;;14.45;3.10;;;12.30;99.90;;;;;;5091518;28;20124;-80
2021/10/14 02:49:39;;;;;;;9.75;1.85;;;12.20;99.90;;;;;;5110125;28;20487;-80
2021/10/14 02:52:05;;;;;;;9.30;2.35;;;12.20;99.90;;;;;;5109210;28;20062;-80
2021/10/14 02:54:32;;;;;;;13.55;2.75;;;12.20;99.90;;;;;;5126293;27;20063;-80
2021/10/14 02:56:58;;;;;;;15.18;2.05;;;12.20;99.90;;;;;;5109528;28;20085;-80
2021/10/14 02:59:24;;;;;;;9.35;2.53;;;12.20;99.90;;;;;;5108460;28;20052;-80
2021/10/14 03:01:50;;;;;;;11.68;2.55;;;12.20;99.90;;;;;;5109668;28;20051;-80
2021/10/14 03:04:16;;;;;;;7.68;2.10;;;12.20;99.90;;;;;;5090999;28;20114;-79
2021/10/14 03:06:41;;;;;;;9.90;1.92;;;12.20;99.90;;;;;;5109571;28;20048;-79
2021/10/14 03:09:07;;;;;;;6.18;1.90;;;12.20;99.90;;;;;;5095520;28;20130;-79
2021/10/14 03:11:33;;;;;;;8.55;2.40;;;12.20;99.90;;;;;;5096498;28;20035;-79
2021/10/14 03:13:58;;;;;;;12.70;2.50;;;12.20;99.90;;;;;;5075005;28;20050;-79
2021/10/14 03:16:24;;;;;;;12.05;2.53;;;12.10;99.90;;;;;;5107587;28;20075;-79
2021/10/14 03:18:51;;;;;;;11.85;2.58;;;12.20;99.90;;;;;;5097577;28;20525;-79
2021/10/14 03:21:18;;;;;;;14.27;1.92;;;12.20;99.90;;;;;;5105950;28;20438;-78
2021/10/14 03:23:44;;;;;;;13.25;2.17;;;12.20;99.90;;;;;;5125185;27;20043;-80
2021/10/14 03:26:10;;;;;;;12.75;1.90;;;12.20;99.90;;;;;;5105930;28;20101;-81
2021/10/14 03:28:36;;;;;;;18.20;2.65;;;12.20;99.90;;;;;;5091967;28;20051;-81
2021/10/14 03:31:01;;;;;;;7.53;2.28;;;12.20;99.90;;;;;;5108734;28;20031;-81
2021/10/14 03:33:27;;;;;;;7.05;1.90;;;12.20;99.90;;;;;;5083019;28;20039;-79
2021/10/14 03:35:53;;;;;;;9.60;2.22;;;12.20;99.90;;;;;;5091998;28;20039;-79
2021/10/14 03:38:18;;;;;;;15.32;2.08;;;12.20;99.90;;;;;;5107473;28;20059;-79
2021/10/14 03:40:44;;;;;;;11.35;1.95;;;12.20;99.90;;;;;;5109528;28;20071;-79
2021/10/14 03:43:10;;;;;;;8.13;1.88;;;12.20;99.90;;;;;;5090165;28;20044;-79
2021/10/14 03:45:36;;;;;;;6.75;2.03;;;12.20;99.90;;;;;;5084165;28;20055;-79
2021/10/14 03:48:01;;;;;;;10.45;2.17;;;12.20;99.90;;;;;;5101604;28;20075;-79
2021/10/14 03:50:27;;;;;;;6.40;2.10;;;12.10;99.90;;;;;;5108435;28;20043;-79
2021/10/14 03:52:53;;;;;;;13.13;2.95;;;12.20;99.90;;;;;;5108327;28;20051;-79
2021/10/14 03:55:19;;;;;;;7.82;2.33;;;12.10;99.90;;;;;;5106016;28;20518;-79
2021/10/14 03:57:45;;;;;;;7.97;2.10;;;12.10;99.90;;;;;;5092016;28;20039;-79
2021/10/14 04:00:11;;;;;;;11.30;2.50;;;12.10;99.90;;;;;;5089811;28;20168;-80
2021/10/14 04:02:37;;;;;;;13.38;2.22;;;12.20;99.90;;;;;;5107775;28;20035;-79
2021/10/14 04:05:03;;;;;;;6.85;2.25;;;12.20;99.90;;;;;;5087614;28;20176;-79
2021/10/14 04:07:29;;;;;;;6.57;2.00;;;12.10;99.90;;;;;;5094027;28;20047;-79
2021/10/14 04:09:55;;;;;;;8.98;2.42;;;12.10;99.90;;;;;;5083032;28;20056;-78
2021/10/14 04:12:21;;;;;;;8.63;2.60;;;12.20;99.90;;;;;;5118564;27;20489;-79
2021/10/14 04:14:46;;;;;;;5.93;2.50;;;12.10;99.90;;;;;;5108723;28;20137;-79
2021/10/14 04:17:12;;;;;;;12.95;2.60;;;12.20;99.90;;;;;;5107038;28;20036;-79
2021/10/14 04:19:38;;;;;;;18.92;3.22;;;12.10;99.90;;;;;;5091192;28;20560;-79
2021/10/14 04:22:04;;;;;;;10.10;2.60;;;12.10;99.90;;;;;;5094442;28;20059;-79
2021/10/14 04:24:31;;;;;;;7.85;2.80;;;12.10;99.90;;;;;;5087909;28;20382;-81
2021/10/14 04:26:57;;;;;;;6.80;2.88;;;12.10;99.90;;;;;;5107589;28;20047;-79
2021/10/14 04:29:23;;;;;;;9.50;3.45;;;12.10;99.90;;;;;;5107168;28;20497;-79
2021/10/14 04:31:48;;;;;;;8.07;2.80;;;12.10;99.90;;;;;;5084080;28;20062;-79
2021/10/14 04:34:15;;;;;;;7.45;3.22;;;12.10;99.90;;;;;;5086176;28;20051;-79
2021/10/14 04:36:41;;;;;;;12.90;3.00;;;12.10;99.90;;;;;;5106670;28;20434;-79
2021/10/14 04:39:07;;;;;;;14.07;3.75;;;12.10;99.90;;;;;;5095538;28;20043;-80
2021/10/14 04:41:33;;;;;;;15.98;3.17;;;12.10;99.90;;;;;;5104892;28;20126;-80
2021/10/14 04:43:59;;;;;;;8.23;3.97;;;12.20;99.90;;;;;;5106698;28;20043;-79
2021/10/14 04:46:25;;;;;;;11.40;3.13;;;12.10;99.90;;;;;;5106586;28;20116;-80
2021/10/14 04:48:51;;;;;;;9.27;2.97;;;12.20;99.90;;;;;;5088213;28;20552;-80
2021/10/14 04:51:17;;;;;;;10.80;3.30;;;12.10;99.90;;;;;;5088725;28;20126;-79
2021/10/14 04:53:43;;;;;;;10.70;3.22;;;12.10;99.90;;;;;;5108088;28;20039;-80
2021/10/14 04:56:08;;;;;;;8.48;3.33;;;12.10;99.90;;;;;;5106038;28;20071;-80
2021/10/14 04:58:34;;;;;;;6.32;3.03;;;12.10;99.90;;;;;;5074303;28;20130;-80
2021/10/14 05:01:00;;;;;;;8.60;3.30;;;12.10;99.90;;;;;;5089175;28;20048;-80
2021/10/14 05:03:25;;;;;;;11.90;3.70;;;12.10;99.90;;;;;;5090826;28;20067;-80
2021/10/14 05:05:51;;;;;;;12.70;3.70;;;12.10;99.90;;;;;;5090129;28;20554;-79
2021/10/14 05:08:17;;;;;;;8.23;3.45;;;12.10;99.90;;;;;;5106416;28;20051;-79
2021/10/14 05:10:43;;;;;;;8.52;3.40;;;12.10;99.90;;;;;;5076692;28;20044;-80
2021/10/14 05:13:09;;;;;;;14.70;3.95;;;12.10;99.90;;;;;;5105846;28;20474;-80
2021/10/14 05:15:37;;;;;;;14.68;3.88;;;12.10;99.90;;;;;;5107461;28;20118;-80
2021/10/14 05:18:03;;;;;;;10.55;4.30;;;12.20;99.90;;;;;;5117074;28;20392;-80
2021/10/14 05:20:29;;;;;;;6.20;4.00;;;12.20;99.90;;;;;;5086188;28;20074;-80
2021/10/14 05:22:55;;;;;;;10.10;3.95;;;12.10;99.90;;;;;;5089309;28;20084;-80
2021/10/14 05:25:20;;;;;;;8.63;3.88;;;12.20;99.90;;;;;;5106626;28;20051;-78
2021/10/14 05:27:46;;;;;;;8.70;3.95;;;12.20;99.90;;;;;;5107341;28;20401;-78
2021/10/14 05:30:12;;;;;;;11.23;3.88;;;12.10;99.90;;;;;;5088990;28;20039;-79
2021/10/14 05:32:38;;;;;;;12.80;4.15;;;12.20;99.90;;;;;;5106005;28;20584;-78
2021/10/14 05:35:04;;;;;;;7.88;3.55;;;12.20;99.90;;;;;;5104648;28;20126;-79
2021/10/14 05:37:30;;;;;;;9.77;4.00;;;12.10;99.90;;;;;;5107757;28;20043;-79
2021/10/14 05:39:56;;;;;;;10.25;4.43;;;12.20;99.90;;;;;;5108392;28;20035;-78
2021/10/14 05:42:22;;;;;;;10.68;4.60;;;12.10;99.90;;;;;;5090401;28;20048;-79
2021/10/14 05:44:48;;;;;;;8.15;4.22;;;12.20;99.90;;;;;;5110921;28;20074;-78
2021/10/14 05:47:14;;;;;;;8.52;3.97;;;12.10;99.90;;;;;;5109982;28;20516;-79
2021/10/14 05:49:40;;;;;;;14.07;5.15;;;12.10;99.90;;;;;;5111087;28;20044;-78
2021/10/14 05:52:06;;;;;;;12.13;4.32;;;12.10;99.90;;;;;;5109101;28;20044;-80
2021/10/14 05:54:32;;;;;;;10.82;4.45;;;12.20;99.90;;;;;;5111213;28;20123;-79
2021/10/14 05:56:58;;;;;;;9.45;4.28;;;12.20;99.90;;;;;;5095834;28;20074;-79
2021/10/14 05:59:25;;;;;;;10.30;4.00;;;12.20;99.90;;;;;;5128308;27;20457;-80
2021/10/14 06:01:51;;;;;;;15.63;5.45;;;12.20;99.90;;;;;;5127514;27;20443;-79
2021/10/14 06:04:17;;;;;;;10.55;4.55;;;12.20;99.90;;;;;;5110021;28;20035;-78
2021/10/14 06:06:42;;;;;;;18.58;4.63;;;12.20;99.90;;;;;;5110389;28;20064;-79
2021/10/14 06:09:08;;;;;;;9.80;4.80;;;12.20;99.90;;;;;;5090554;28;20043;-79
2021/10/14 06:11:34;;;;;;;9.25;4.43;;;12.20;99.90;;;;;;5098552;28;20508;-79
2021/10/14 06:14:00;;;;;;;13.73;4.88;;;12.20;99.90;;;;;;5092376;28;20047;-80
2021/10/14 06:16:26;;;;;;;7.63;4.28;;;12.20;99.90;;;;;;5093675;28;20062;-80
2021/10/14 06:18:51;;;;;;;13.60;4.70;;;12.20;99.90;;;;;;5109567;28;20048;-79
2021/10/14 06:21:17;;;;;;;14.20;4.68;;;12.20;99.90;;;;;;5109796;28;20035;-80
2021/10/14 06:23:43;;;;;;;9.63;4.70;;;12.20;99.90;;;;;;5110261;28;20055;-79
2021/10/14 06:26:09;;;;;;;13.93;5.22;;;12.20;99.90;;;;;;5089640;28;20043;-80
2021/10/14 06:28:35;;;;;;;14.80;5.15;;;12.30;99.90;;;;;;5108741;28;20048;-80
2021/10/14 06:31:01;;;;;;;8.55;4.68;;;12.30;99.90;;;;;;5108896;28;20066;-79
2021/10/14 06:33:27;;;;;;;11.50;4.82;;;12.30;99.90;;;;;;5110711;28;20066;-79
2021/10/14 06:35:52;;;;;;;16.02;5.13;;;12.30;99.90;;;;;;5108636;28;20485;-80
2021/10/14 06:38:18;;;;;;;14.85;5.47;;;12.30;99.90;;;;;;5092969;28;20040;-80
2021/10/14 06:40:44;;;;;;;8.50;4.28;;;12.30;99.90;;;;;;5110099;28;20035;-80
2021/10/14 06:43:09;;;;;;;10.85;4.78;;;12.40;99.90;;;;;;5109414;28;20402;-80
2021/10/14 06:45:36;;;;;;;12.65;5.45;;;12.40;99.90;;;;;;5110536;28;20140;-80
2021/10/14 06:48:02;;;;;;;10.55;4.70;;;12.40;99.90;;;;;;5075065;28;20104;-80
2021/10/14 06:50:30;;;;;;;8.60;4.57;;;12.40;99.90;;;;;;5110426;28;20036;-79
2021/10/14 06:52:55;;;;;;;7.80;4.65;;;12.40;99.90;;;;;;5108346;28;20489;-79
2021/10/14 06:55:21;;;;;;;10.50;5.07;;;12.40;99.90;;;;;;5109082;28;20070;-80
2021/10/14 07:00:31;;;;;;;14.85;5.47;;;12.50;99.90;;;;;;5104768;28;20052;-79
2021/10/14 07:02:57;;;;;;;12.43;5.60;;;12.50;99.90;;;;;;5094229;28;20397;-79
2021/10/14 07:05:22;;;;;;;15.07;5.75;;;12.50;99.90;;;;;;5093351;28;20725;-79
2021/10/14 07:07:48;;;;;;;11.30;5.88;;;12.50;99.90;;;;;;5073920;28;20048;-79
2021/10/14 07:10:16;;;;;;;14.52;6.10;;;12.60;99.90;;;;;;5090040;28;20043;-79
2021/10/14 07:12:42;;;;;;;16.45;6.10;;;12.60;99.90;;;;;;5125185;27;20032;-79
2021/10/14 07:15:09;;;;;;;18.75;6.20;;;12.60;99.90;;;;;;5107966;28;20053;-79
2021/10/14 07:17:35;;;;;;;10.98;6.53;;;12.60;99.90;;;;;;5074934;28;20078;-80
2021/10/14 07:20:02;;;;;;;15.20;6.07;;;12.60;99.90;;;;;;5091829;28;20043;-79
2021/10/14 07:22:28;;;;;;;12.70;6.57;;;12.70;99.90;;;;;;5116702;27;20071;-79
2021/10/14 07:24:54;;;;;;;12.40;6.55;;;12.70;99.90;;;;;;5108524;28;20461;-79
2021/10/14 07:27:20;;;;;;;15.77;6.40;;;12.70;99.90;;;;;;5095512;28;20044;-79
2021/10/14 07:29:45;;;;;;;15.18;5.78;;;12.70;99.90;;;;;;5106872;28;20142;-79
2021/10/14 07:32:11;;;;;;;10.05;5.88;;;12.70;99.90;;;;;;5106554;28;20485;-79
2021/10/14 07:34:38;;;;;;;9.65;5.72;;;12.80;99.90;;;;;;5091476;28;20043;-79
2021/10/14 07:37:05;;;;;;;15.98;5.97;;;12.80;99.90;;;;;;5089507;28;20100;-79
2021/10/14 07:39:31;;;;;;;12.65;5.40;;;12.80;99.90;;;;;;5083941;28;20031;-79
2021/10/14 07:41:57;;;;;;;8.68;5.68;;;12.80;99.90;;;;;;5076973;28;20032;-79
2021/10/14 07:44:23;;;;;;;11.38;6.43;;;12.80;99.90;;;;;;5111543;27;20080;-79
2021/10/14 07:46:49;;;;;;;15.35;6.32;;;12.90;99.90;;;;;;5100108;28;20070;-79
2021/10/14 07:49:16;;;;;;;17.05;6.82;;;12.90;99.90;;;;;;5117095;27;20075;-79
2021/10/14 07:51:42;;;;;;;14.70;6.90;;;12.90;99.90;;;;;;5067514;28;20119;-79
2021/10/14 07:54:08;;;;;;;13.70;7.45;;;12.90;99.90;;;;;;5083362;28;20126;-79
2021/10/14 07:56:33;;;;;;;8.95;6.25;;;12.90;99.90;;;;;;5094425;28;20099;-79
2021/10/14 07:58:59;;;;;;;10.23;5.60;;;12.90;99.90;;;;;;5065813;28;20043;-79
2021/10/14 08:01:25;;;;;;;13.15;5.55;;;12.90;99.90;;;;;;5087915;28;20048;-79
2021/10/14 08:03:51;;;;;;;10.23;4.90;;;12.90;99.90;;;;;;5087988;28;20040;-79
2021/10/14 08:06:17;;;;;;;14.38;5.93;;;13.00;99.90;;;;;;5075264;28;20048;-79
2021/10/14 08:08:43;;;;;;;11.23;5.68;;;13.00;99.90;;;;;;5083432;28;20200;-79
2021/10/14 08:11:09;;;;;;;14.05;5.60;;;13.00;99.90;;;;;;5090834;28;20078;-79
2021/10/14 08:13:35;;;;;;;9.75;4.80;;;13.00;99.90;;;;;;5086833;28;20039;-78
2021/10/14 08:16:01;;;;;;;8.85;5.05;;;13.00;99.90;;;;;;5098096;28;20043;-79
2021/10/14 08:18:27;;;;;;;10.52;5.60;;;13.00;99.90;;;;;;5086694;28;20413;-79
2021/10/14 08:20:54;;;;;;;12.15;5.55;;;13.10;99.90;;;;;;5106725;28;20133;-79
2021/10/14 08:23:26;;;;;;;8.30;4.97;;;13.00;99.90;;;;;;5087289;28;20044;-78
2021/10/14 08:25:53;;;;;;;12.10;5.78;;;13.00;99.90;;;;;;5103439;28;20137;-79
2021/10/14 08:28:19;;;;;;;10.40;5.07;;;13.00;99.90;;;;;;5085742;28;20040;-79
2021/10/14 08:30:50;;;;;;;8.07;5.07;;;13.00;99.90;;;;;;5092077;28;20077;-79
2021/10/14 08:33:16;;;;;;;14.02;5.65;;;13.10;99.90;;;;;;5089337;28;20040;-79
2021/10/14 08:35:42;;;;;;;11.27;5.72;;;13.10;99.90;;;;;;5098941;28;20039;-79
2021/10/14 08:38:09;;;;;;;11.57;4.65;;;13.10;99.90;;;;;;5091256;28;20048;-79
2021/10/14 08:40:36;;;;;;;6.97;4.80;;;13.20;99.90;;;;;;5087708;28;20104;-79
2021/10/14 08:43:14;;;;;;;8.18;4.47;;;13.20;99.90;;;;;;5087521;28;20119;-79
2021/10/14 08:45:43;;;;;;;9.52;4.72;;;13.20;99.90;;;;;;5070469;28;20059;-79
2021/10/14 08:48:09;;;;;;;13.65;5.22;;;13.20;99.90;;;;;;5096105;28;20051;-81
2021/10/14 08:50:37;;;;;;;11.10;5.32;;;13.30;99.90;;;;;;5098962;28;20040;-80
2021/10/14 08:53:04;;;;;;;14.43;4.85;;;13.30;99.90;;;;;;5091488;28;20051;-80
2021/10/14 08:55:32;;;;;;;7.90;4.72;;;13.30;99.90;;;;;;5103481;28;20040;-80
2021/10/14 08:57:58;;;;;;;11.13;4.95;;;13.30;99.90;;;;;;5085879;28;20135;-80
2021/10/14 09:00:24;;;;;;;12.82;4.40;;;13.40;99.90;;;;;;5105334;28;20594;-80
2021/10/14 09:02:50;;;;;;;8.38;4.65;;;13.40;99.90;;;;;;5102531;28;20139;-80
2021/10/14 09:05:16;;;;;;;14.00;5.05;;;13.50;99.90;;;;;;5086125;28;20036;-80
2021/10/14 09:07:42;;;;;;;11.77;4.57;;;13.50;99.90;;;;;;5088063;28;20044;-80
2021/10/14 09:10:12;;;;;;;9.20;4.75;;;13.50;99.90;;;;;;5084138;28;20035;-80
2021/10/14 09:12:40;;;;;;;10.05;4.30;;;13.50;99.90;;;;;;5105221;28;20044;-80
2021/10/14 09:15:11;;;;;;;8.25;5.00;;;13.50;99.90;;;;;;5085184;28;20455;-80
2021/10/14 09:17:37;;;;;;;11.85;4.57;;;13.50;99.90;;;;;;5099088;28;20040;-80
2021/10/14 09:20:29;;;;;;;8.65;4.30;;;13.50;99.90;;;;;;5096343;28;20043;-81
2021/10/14 09:22:57;;;;;;;9.27;4.43;;;13.50;99.90;;;;;;5088982;28;20263;-80
2021/10/14 09:25:44;;;;;;;9.93;3.83;;;13.60;99.90;;;;;;5105023;28;20036;-80
2021/10/14 09:28:24;;;;;;;9.82;3.97;;;13.60;99.90;;;;;;5090997;28;20039;-79
2021/10/14 09:30:50;;;;;;;7.43;3.95;;;13.60;99.90;;;;;;5094435;28;20040;-80
2021/10/14 09:33:36;;;;;;;7.47;3.95;;;13.60;99.90;;;;;;5096966;28;20067;-81
2021/10/14 09:36:27;;;;;;;7.30;3.33;;;13.60;99.90;;;;;;5083620;28;20470;-82
2021/10/14 09:38:57;;;;;;;10.05;3.85;;;13.70;99.90;;;;;;5081072;28;20474;-82
2021/10/14 09:41:24;;;;;;;5.90;2.97;;;13.70;99.90;;;;;;5105992;28;20089;-82
2021/10/14 09:43:53;;;;;;;4.55;3.35;;;13.70;99.90;;;;;;5093920;28;20554;-82
2021/10/14 09:46:38;;;;;;;9.95;3.38;;;13.70;99.90;;;;;;5096167;28;20070;-82
2021/10/14 09:49:19;;;;;;;5.65;3.20;;;13.80;99.90;;;;;;5093466;28;20048;-81
2021/10/14 09:51:45;;;;;;;14.27;4.72;;;13.80;99.90;;;;;;5098857;28;20126;-81
2021/10/14 09:54:12;;;;;;;9.82;2.88;;;13.80;99.90;;;;;;5084843;28;20390;-81
2021/10/14 09:56:38;;;;;;;11.10;3.85;;;13.80;99.90;;;;;;5099012;28;20075;-80
2021/10/14 09:59:04;;;;;;;6.65;4.03;;;13.90;99.90;;;;;;5091134;28;20177;-80
2021/10/14 10:01:32;;;;;;;5.00;3.33;;;13.90;99.90;;;;;;5080483;28;20126;-81
2021/10/14 10:03:59;;;;;;;8.38;3.95;;;14.00;99.90;;;;;;5087203;28;20513;-79
2021/10/14 10:09:17;;;;;;;7.32;3.95;;;14.00;99.90;;;;;;5103017;28;20047;-79
2021/10/14 10:11:52;;;;;;;9.25;3.90;;;14.00;99.90;;;;;;5084452;28;20408;-79
2021/10/14 10:14:23;;;;;;;8.00;4.32;;;13.90;99.90;;;;;;5122023;27;20035;-79
2021/10/14 10:16:57;;;;;;;7.38;4.18;;;14.00;99.90;;;;;;5098066;28;20048;-80
2021/10/14 10:19:49;;;;;;;7.78;3.80;;;14.00;99.90;;;;;;5100113;28;20043;-80
2021/10/14 10:22:33;;;;;;;12.20;4.07;;;14.00;99.90;;;;;;5098642;28;20553;-80
2021/10/14 10:25:18;;;;;;;11.48;3.85;;;14.00;99.90;;;;;;5103185;28;20078;-80
2021/10/14 10:27:44;;;;;;;5.00;3.30;;;14.00;99.90;;;;;;5097646;28;20494;-80
2021/10/14 10:30:11;;;;;;;13.30;4.03;;;14.10;99.90;;;;;;5095930;28;20047;-80
2021/10/14 10:32:43;;;;;;;9.18;3.58;;;14.10;99.90;;;;;;5086920;28;20115;-81
2021/10/14 10:35:11;;;;;;;12.27;4.60;;;14.10;99.90;;;;;;5097093;28;20036;-81
2021/10/14 10:37:42;;;;;;;10.48;3.97;;;14.20;99.90;;;;;;5103055;28;20483;-81
2021/10/14 10:40:09;;;;;;;7.30;4.47;;;14.20;99.90;;;;;;5074407;28;20036;-81
2021/10/14 10:42:49;;;;;;;10.15;4.20;;;14.20;99.90;;;;;;5095198;28;20046;-81
2021/10/14 10:45:22;;;;;;;6.38;3.65;;;14.20;99.90;;;;;;5099070;28;20043;-82
2021/10/14 10:47:54;;;;;;;7.90;4.10;;;14.20;99.90;;;;;;5095524;28;20355;-81
2021/10/14 10:50:28;;;;;;;8.80;3.72;;;14.20;99.90;;;;;;5097410;28;20100;-80
2021/10/14 10:53:06;;;;;;;14.98;4.18;;;14.20;99.90;;;;;;5098676;28;20145;-80
2021/10/14 10:55:36;;;;;;;12.90;4.28;;;14.30;99.90;;;;;;5104883;28;20118;-81
2021/10/14 10:58:02;;;;;;;;;;;14.30;99.90;;;;;;5091002;28;20075;-80
2021/10/14 11:00:28;;;;;;;9.68;3.90;;;14.30;99.90;;;;;;5086861;28;20430;-81
2021/10/14 11:03:10;;;;;;;9.02;3.78;;;14.40;99.90;;;;;;5085007;28;20528;-80
2021/10/14 11:05:46;;;;;;;12.82;4.38;;;14.40;99.90;;;;;;5077728;28;20054;-81
2021/10/14 11:08:21;;;;;;;5.35;3.40;;;14.40;99.90;;;;;;5097985;28;20048;-80
2021/10/14 11:10:51;;;;;;;8.35;3.95;;;14.40;99.90;;;;;;5106562;27;20059;-79
2021/10/14 11:13:16;;;;;;;6.53;4.07;;;14.50;99.90;;;;;;5089854;28;20040;-79
2021/10/14 11:15:47;;;;;;;6.90;3.47;;;14.50;99.90;;;;;;5084470;28;20054;-79
2021/10/14 11:18:13;;;;;;;7.18;3.40;;;14.50;99.90;;;;;;5078424;28;20051;-79
2021/10/14 11:20:52;;;;;;;7.40;3.38;;;14.60;99.90;;;;;;5089821;28;20510;-78
2021/10/14 11:23:19;;;;;;;5.70;3.28;;;14.60;99.90;;;;;;5087610;28;20039;-79
2021/10/14 11:25:59;;;;;;;9.50;3.55;;;14.60;99.90;;;;;;5087310;28;20490;-79
2021/10/14 11:28:25;;;;;;;6.53;3.15;;;14.70;99.90;;;;;;5084718;28;20036;-79
2021/10/14 11:30:55;;;;;;;13.43;3.80;;;14.70;99.90;;;;;;5077242;28;20039;-79
2021/10/14 11:33:34;;;;;;;12.10;3.67;;;14.70;99.90;;;;;;5069099;28;20151;-79
2021/10/14 11:36:02;;;;;;;14.57;3.00;;;14.70;99.90;;;;;;5093753;28;20373;-79
2021/10/14 11:38:29;;;;;;;10.98;2.75;;;14.80;99.90;;;;;;5096030;28;20040;-79
2021/10/14 11:40:56;;;;;;;12.43;2.92;;;14.80;99.90;;;;;;5070011;28;20090;-79
2021/10/14 11:43:27;;;;;;;13.55;2.28;;;14.80;99.90;;;;;;5090925;28;20046;-79
2021/10/14 11:45:54;;;;;;;7.72;2.42;;;14.80;99.90;;;;;;5073644;28;20618;-79
2021/10/14 11:48:31;;;;;;;5.57;2.55;;;14.80;99.90;;;;;;5107036;28;20040;-79
2021/10/14 11:51:08;;;;;;;7.75;2.25;;;14.80;99.90;;;;;;5087717;28;20122;-79
2021/10/14 11:53:35;;;;;;;7.70;2.13;;;14.80;99.90;;;;;;5085402;28;20051;-80
2021/10/14 11:56:07;;;;;;;7.53;2.08;;;14.90;99.90;;;;;;5102265;28;20092;-80
2021/10/14 11:58:34;;;;;;;6.72;1.85;;;14.90;99.90;;;;;;5082898;28;20046;-82
2021/10/14 12:01:12;;;;;;;7.32;2.05;;;15.00;99.90;;;;;;5083970;28;20052;-81
2021/10/14 12:03:39;;;;;;;9.00;2.30;;;14.90;99.90;;;;;;5087360;28;20040;-80
2021/10/14 12:06:07;;;;;;;5.43;2.05;;;15.00;99.90;;;;;;5081357;28;20094;-81
2021/10/14 12:08:33;;;;;;;7.07;2.10;;;15.00;99.90;;;;;;5096001;28;20052;-79
2021/10/14 12:10:59;;;;;;;12.55;1.98;;;14.90;99.90;;;;;;5081664;28;20040;-79
2021/10/14 12:13:28;;;;;;;7.03;2.00;;;14.90;99.90;;;;;;5088561;28;20396;-79
2021/10/14 12:16:13;;;;;;;7.63;1.90;;;14.90;99.90;;;;;;5105170;28;20086;-79
2021/10/14 12:18:40;;;;;;;7.22;1.90;;;14.90;99.90;;;;;;5106041;28;20090;-79
2021/10/14 12:21:27;;;;;;;4.75;1.92;;;14.90;99.90;;;;;;5103917;28;20059;-79
2021/10/14 12:24:09;;;;;;;8.65;2.50;;;15.00;99.90;;;;;;5090643;28;20169;-79
2021/10/14 12:26:40;;;;;;;7.05;1.98;;;15.10;99.90;;;;;;5089820;28;20055;-79
2021/10/14 12:29:22;;;;;;;8.73;2.15;;;15.10;99.90;;;;;;5107147;28;20047;-79
2021/10/14 12:31:48;;;;;;;6.53;2.20;;;15.10;99.90;;;;;;5105803;28;20124;-79
2021/10/14 12:34:14;;;;;;;5.50;1.70;;;15.20;99.90;;;;;;5097778;28;20031;-79
2021/10/14 12:36:47;;;;;;;8.77;2.58;;;15.20;99.90;;;;;;5093987;28;20113;-79
2021/10/14 12:39:23;;;;;;;6.05;2.90;;;15.20;99.90;;;;;;5090308;28;20465;-79
2021/10/14 12:41:57;;;;;;;5.78;2.40;;;15.20;99.90;;;;;;5069381;28;20090;-78
2021/10/14 12:44:35;;;;;;;5.95;2.25;;;15.30;99.90;;;;;;5096087;28;20043;-79
2021/10/14 12:47:04;;;;;;;6.47;2.20;;;15.40;99.90;;;;;;5102666;28;20363;-78
2021/10/14 12:51:59;;;;;;;6.60;2.45;;;15.60;99.90;;;;;;5110397;27;20048;-80
2021/10/14 12:54:27;;;;;;;3.30;1.90;;;15.70;99.90;;;;;;5072694;28;20135;-80